Time;durP1;ratioP1;P1;durP2;ratioP2;P2;SDS_P1;SDS_P2;PMS_P1;PMS_P2;Temp;Humidity;BMP_temperature;BMP_pressure;BME280_temperature;BME280_humidity;BME280_pressure;Samples;Min_cycle;Max_cycle;Signal;HPM_P1;HPM_P2
2022/07/21 00:01:47;;;;;;;8.73;5.65;;;21.40;62.30;;;;;;5032921;28;20030;-13
2022/07/21 00:04:15;;;;;;;7.72;4.50;;;21.40;62.80;;;;;;5032369;28;20025;-13
2022/07/21 00:06:42;;;;;;;5.97;4.43;;;21.40;62.40;;;;;;5032506;28;20471;-13
2022/07/21 00:09:09;;;;;;;8.68;4.78;;;21.30;62.40;;;;;;5032884;28;20029;-13
2022/07/21 00:11:36;;;;;;;7.45;5.07;;;21.20;62.50;;;;;;5032699;28;20025;-13
2022/07/21 00:14:02;;;;;;;7.95;4.55;;;21.20;62.60;;;;;;5036450;28;20091;-13
2022/07/21 00:16:28;;;;;;;7.78;4.30;;;21.20;62.80;;;;;;5036102;28;20026;-13
2022/07/21 00:18:54;;;;;;;8.40;4.32;;;21.10;62.90;;;;;;5036103;28;20029;-14
2022/07/21 00:21:20;;;;;;;5.72;3.95;;;21.10;63.10;;;;;;5036830;28;20652;-14
2022/07/21 00:23:46;;;;;;;6.85;4.50;;;21.10;62.80;;;;;;5036395;28;20112;-13
2022/07/21 00:26:12;;;;;;;7.55;4.60;;;21.00;62.90;;;;;;5036114;28;20029;-13
2022/07/21 00:28:38;;;;;;;6.40;4.63;;;21.00;63.00;;;;;;5034482;28;20088;-14
2022/07/21 00:31:04;;;;;;;6.70;4.38;;;21.00;63.10;;;;;;5036006;28;20075;-14
2022/07/21 00:33:30;;;;;;;6.18;4.40;;;20.90;63.30;;;;;;5036243;28;20029;-13
2022/07/21 00:35:55;;;;;;;6.28;4.32;;;20.90;63.60;;;;;;5035815;28;20434;-13
2022/07/21 00:38:21;;;;;;;8.60;4.45;;;20.90;63.60;;;;;;5035565;28;20183;-14
2022/07/21 00:40:47;;;;;;;7.78;4.72;;;20.80;63.80;;;;;;5035742;28;20029;-13
2022/07/21 00:43:13;;;;;;;6.03;4.10;;;20.80;64.20;;;;;;5035635;28;20029;-13
2022/07/21 00:45:39;;;;;;;7.20;4.18;;;20.70;64.30;;;;;;5035872;28;20036;-13
2022/07/21 00:48:05;;;;;;;5.88;4.30;;;20.60;64.90;;;;;;5035929;28;20071;-14
2022/07/21 00:50:32;;;;;;;7.50;4.70;;;20.50;65.20;;;;;;5035397;28;20112;-13
2022/07/21 00:52:58;;;;;;;8.20;5.72;;;20.40;65.90;;;;;;5036031;28;20484;-13
2022/07/21 00:55:25;;;;;;;10.13;5.63;;;20.40;66.10;;;;;;5035493;28;20033;-13
2022/07/21 00:57:53;;;;;;;7.15;4.97;;;20.30;66.30;;;;;;5035517;28;20079;-13
2022/07/21 01:00:22;;;;;;;7.57;4.47;;;20.30;66.30;;;;;;5035633;28;20065;-13
2022/07/21 01:02:49;;;;;;;8.40;5.00;;;20.20;66.10;;;;;;5035405;28;20017;-13
2022/07/21 01:05:17;;;;;;;7.97;4.80;;;20.20;66.20;;;;;;5035311;28;20052;-13
2022/07/21 01:07:45;;;;;;;9.10;5.25;;;20.20;66.50;;;;;;5035751;28;20493;-13
2022/07/21 01:10:12;;;;;;;8.65;5.55;;;20.10;66.90;;;;;;5035232;28;20033;-12
2022/07/21 01:12:38;;;;;;;8.07;5.60;;;20.10;66.70;;;;;;5035102;28;20030;-13
2022/07/21 01:15:09;;;;;;;8.18;4.55;;;20.00;66.90;;;;;;5035318;28;20060;-14
2022/07/21 01:17:36;;;;;;;8.82;5.22;;;20.00;66.90;;;;;;5035466;28;20017;-14
2022/07/21 01:20:06;;;;;;;10.95;6.00;;;20.10;67.60;;;;;;5035148;28;20113;-13
2022/07/21 01:22:34;;;;;;;13.50;6.78;;;20.00;67.30;;;;;;5034835;28;20504;-14
2022/07/21 01:25:01;;;;;;;8.00;4.97;;;20.10;67.10;;;;;;5034358;28;20485;-14
2022/07/21 01:27:27;;;;;;;9.20;5.40;;;20.00;67.20;;;;;;5034833;28;20028;-12
2022/07/21 01:29:54;;;;;;;9.15;5.60;;;20.00;67.20;;;;;;5034876;28;20029;-14
2022/07/21 01:32:21;;;;;;;8.27;5.47;;;20.10;67.00;;;;;;5034602;28;20037;-14
2022/07/21 01:34:47;;;;;;;8.77;5.75;;;20.00;67.30;;;;;;5035077;28;20017;-14
2022/07/21 01:37:13;;;;;;;12.95;6.47;;;19.90;67.10;;;;;;5033319;28;20384;-14
2022/07/21 01:42:24;;;;;;;7.35;4.60;;;19.90;67.50;;;;;;5034664;28;20053;-13
2022/07/21 01:44:50;;;;;;;10.63;5.68;;;19.90;67.50;;;;;;5035021;28;20404;-13
2022/07/21 01:47:17;;;;;;;11.52;6.15;;;19.90;67.60;;;;;;5034523;28;20120;-13
2022/07/21 01:49:44;;;;;;;10.18;6.53;;;19.90;67.70;;;;;;5034483;28;20048;-14
2022/07/21 01:52:13;;;;;;;9.13;5.38;;;19.90;67.80;;;;;;5034389;28;20022;-13
2022/07/21 01:54:39;;;;;;;8.55;4.90;;;19.90;67.60;;;;;;5034661;28;20037;-15
2022/07/21 01:57:05;;;;;;;7.95;5.32;;;19.80;67.90;;;;;;5034555;28;20140;-14
2022/07/21 01:59:31;;;;;;;8.60;5.10;;;19.70;67.70;;;;;;5034425;28;20038;-14
2022/07/21 02:01:57;;;;;;;7.75;5.43;;;19.70;68.60;;;;;;5034545;28;20022;-14
2022/07/21 02:04:22;;;;;;;7.93;5.15;;;19.60;68.80;;;;;;5034196;28;20071;-13
2022/07/21 02:06:48;;;;;;;7.40;4.80;;;19.60;68.50;;;;;;5034092;28;20032;-13
2022/07/21 02:09:14;;;;;;;10.23;5.85;;;19.50;68.90;;;;;;5034428;28;20074;-13
2022/07/21 02:11:40;;;;;;;7.82;5.05;;;19.40;69.10;;;;;;5034250;28;20362;-13
2022/07/21 02:14:06;;;;;;;6.60;5.05;;;19.40;69.20;;;;;;5034207;28;20048;-14
2022/07/21 02:16:33;;;;;;;7.90;5.05;;;19.40;69.50;;;;;;5033823;28;20056;-15
2022/07/21 02:18:59;;;;;;;10.93;5.30;;;19.40;69.60;;;;;;5034216;28;20056;-14
2022/07/21 02:21:25;;;;;;;7.78;5.28;;;19.40;69.60;;;;;;5034298;28;20025;-13
2022/07/21 02:23:51;;;;;;;7.93;4.75;;;19.30;69.40;;;;;;5034159;28;20171;-13
2022/07/21 02:26:17;;;;;;;9.40;7.13;;;19.30;69.40;;;;;;5033815;28;20112;-14
2022/07/21 02:28:43;;;;;;;10.85;5.53;;;19.20;69.90;;;;;;5033725;28;20460;-13
2022/07/21 02:31:09;;;;;;;9.27;6.18;;;19.20;70.10;;;;;;5034014;28;20033;-13
2022/07/21 02:33:35;;;;;;;11.18;6.93;;;19.20;70.10;;;;;;5033930;28;20105;-14
2022/07/21 02:36:01;;;;;;;8.32;5.78;;;19.20;70.40;;;;;;5033067;28;20052;-13
2022/07/21 02:38:27;;;;;;;8.50;5.65;;;19.10;70.60;;;;;;5033203;28;20058;-13
2022/07/21 02:40:53;;;;;;;7.60;4.85;;;19.10;70.50;;;;;;5033781;28;20022;-13
2022/07/21 02:43:18;;;;;;;8.18;5.63;;;19.10;70.40;;;;;;5033818;28;20052;-14
2022/07/21 02:45:44;;;;;;;8.35;5.32;;;19.10;70.50;;;;;;5033622;28;20061;-14
2022/07/21 02:48:12;;;;;;;9.18;5.75;;;19.10;70.60;;;;;;5033508;28;20022;-14
2022/07/21 02:50:41;;;;;;;8.00;5.53;;;19.00;70.60;;;;;;5032222;28;20075;-13
2022/07/21 02:53:12;;;;;;;12.90;7.75;;;19.00;71.00;;;;;;5033389;28;20029;-13
2022/07/21 02:55:38;;;;;;;13.40;7.88;;;19.00;71.00;;;;;;5032202;28;20485;-14
2022/07/21 02:58:13;;;;;;;13.60;7.68;;;18.90;71.10;;;;;;5033559;28;20022;-13
2022/07/21 03:00:58;;;;;;;14.65;7.72;;;19.00;71.30;;;;;;5033556;28;20029;-14
2022/07/21 03:03:27;;;;;;;12.85;7.40;;;18.90;71.50;;;;;;5033694;28;20378;-13
2022/07/21 03:05:53;;;;;;;10.38;6.32;;;18.90;71.40;;;;;;5033401;28;20098;-13
2022/07/21 03:08:21;;;;;;;11.55;9.00;;;18.90;71.40;;;;;;5033359;28;20045;-14
2022/07/21 03:10:48;;;;;;;11.20;8.30;;;19.00;71.50;;;;;;5031910;28;20029;-14
2022/07/21 03:13:14;;;;;;;11.23;7.18;;;19.00;71.80;;;;;;5033049;28;20036;-14
2022/07/21 03:15:40;;;;;;;10.82;7.18;;;19.00;71.70;;;;;;5033050;28;20420;-13
2022/07/21 03:18:06;;;;;;;9.13;6.45;;;19.00;71.60;;;;;;5033053;28;20035;-14
2022/07/21 03:20:35;;;;;;;10.48;6.75;;;19.00;71.30;;;;;;5033241;28;20021;-14
2022/07/21 03:23:01;;;;;;;10.38;6.47;;;19.00;71.40;;;;;;5033018;28;20087;-13
2022/07/21 03:25:28;;;;;;;11.35;7.88;;;18.90;71.50;;;;;;5033348;28;20075;-13
2022/07/21 03:27:54;;;;;;;12.75;8.02;;;18.90;72.00;;;;;;5033037;28;20375;-13
2022/07/21 03:30:21;;;;;;;10.25;7.75;;;18.80;72.00;;;;;;5032801;28;20544;-14
2022/07/21 03:32:49;;;;;;;19.83;10.27;;;18.80;72.00;;;;;;5033415;28;20029;-14
2022/07/21 03:35:16;;;;;;;10.48;6.82;;;18.70;72.30;;;;;;5033462;28;20108;-13
2022/07/21 03:37:49;;;;;;;12.02;7.72;;;18.70;72.70;;;;;;5032568;28;20053;-14
2022/07/21 03:40:19;;;;;;;13.52;7.75;;;18.70;72.60;;;;;;5032817;28;20068;-14
2022/07/21 03:42:45;;;;;;;10.55;8.23;;;18.70;72.70;;;;;;5033033;28;20107;-13
2022/07/21 03:45:12;;;;;;;17.77;10.00;;;18.70;72.80;;;;;;5032774;28;20112;-13
2022/07/21 03:47:38;;;;;;;14.85;9.65;;;18.70;72.70;;;;;;5034455;28;20040;-15
2022/07/21 03:50:05;;;;;;;29.40;12.32;;;18.70;72.40;;;;;;5035847;28;20021;-16
2022/07/21 03:52:31;;;;;;;28.58;11.65;;;18.70;72.60;;;;;;5036555;28;20445;-13
2022/07/21 03:55:17;;;;;;;18.48;10.60;;;18.70;72.80;;;;;;5036634;28;20521;-14
2022/07/21 03:57:47;;;;;;;14.60;10.10;;;18.70;72.80;;;;;;5036824;28;20032;-13
2022/07/21 04:00:17;;;;;;;18.15;12.98;;;18.70;72.70;;;;;;5036337;28;20036;-15
2022/07/21 04:02:45;;;;;;;11.98;8.63;;;18.60;73.00;;;;;;5036552;28;20064;-13
2022/07/21 04:05:12;;;;;;;12.73;8.55;;;18.70;73.00;;;;;;5036500;28;20108;-13
2022/07/21 04:07:40;;;;;;;12.20;8.38;;;18.80;72.50;;;;;;5036306;28;20033;-13
2022/07/21 04:10:08;;;;;;;9.23;7.40;;;18.80;72.40;;;;;;5035161;28;20029;-13
2022/07/21 04:12:34;;;;;;;11.18;8.30;;;18.70;72.60;;;;;;5036103;28;20021;-14
2022/07/21 04:15:00;;;;;;;12.20;8.55;;;18.70;72.80;;;;;;5036490;28;20105;-13
2022/07/21 04:17:26;;;;;;;11.02;8.10;;;18.70;73.10;;;;;;5036957;28;20431;-15
2022/07/21 04:19:52;;;;;;;14.40;7.82;;;18.70;72.90;;;;;;5036314;28;20515;-14
2022/07/21 04:22:17;;;;;;;12.80;8.85;;;18.70;72.90;;;;;;5035920;28;20032;-15
2022/07/21 04:24:44;;;;;;;11.82;8.43;;;18.70;73.10;;;;;;5036599;28;20036;-14
2022/07/21 04:27:10;;;;;;;11.98;8.38;;;18.70;73.20;;;;;;5036331;28;20453;-13
2022/07/21 04:29:36;;;;;;;18.17;10.60;;;18.60;73.40;;;;;;5036176;28;20108;-14
2022/07/21 04:32:02;;;;;;;22.77;11.65;;;18.70;73.20;;;;;;5036034;28;20063;-14
2022/07/21 04:34:28;;;;;;;14.73;10.23;;;18.80;73.10;;;;;;5035822;28;20057;-12
2022/07/21 04:36:55;;;;;;;23.88;13.55;;;18.80;73.10;;;;;;5036143;28;20099;-13
2022/07/21 04:39:21;;;;;;;15.63;10.93;;;18.90;73.60;;;;;;5035612;28;20050;-13
2022/07/21 04:41:47;;;;;;;12.65;9.63;;;19.00;73.30;;;;;;5035725;28;20051;-15
2022/07/21 04:44:13;;;;;;;17.85;12.20;;;19.20;74.20;;;;;;5035633;28;20034;-14
2022/07/21 04:46:39;;;;;;;13.90;9.70;;;19.30;74.30;;;;;;5035611;28;20037;-13
2022/07/21 04:49:05;;;;;;;13.35;8.70;;;19.40;73.70;;;;;;5035937;28;20022;-14
2022/07/21 04:51:31;;;;;;;16.83;10.82;;;19.40;73.00;;;;;;5035902;28;20040;-14
2022/07/21 04:53:57;;;;;;;14.43;9.05;;;19.50;73.20;;;;;;5035798;28;20029;-13
2022/07/21 04:56:23;;;;;;;12.75;9.05;;;19.70;72.90;;;;;;5035386;28;20029;-13
2022/07/21 04:58:49;;;;;;;14.00;10.48;;;19.70;72.20;;;;;;5034339;28;20018;-14
2022/07/21 05:01:17;;;;;;;17.73;10.60;;;19.90;72.00;;;;;;5035685;28;20029;-13
2022/07/21 05:03:44;;;;;;;18.20;13.02;;;20.00;71.80;;;;;;5035706;28;20060;-13
2022/07/21 05:06:11;;;;;;;17.13;11.75;;;20.20;71.70;;;;;;5035569;28;20103;-14
2022/07/21 05:08:37;;;;;;;20.23;11.65;;;20.30;70.90;;;;;;5035044;28;20413;-14
2022/07/21 05:11:03;;;;;;;14.88;10.90;;;20.50;70.50;;;;;;5034028;28;20021;-13
2022/07/21 05:13:29;;;;;;;16.02;12.20;;;20.60;70.30;;;;;;5035427;28;20033;-13
2022/07/21 05:15:55;;;;;;;19.55;12.45;;;20.70;70.00;;;;;;5035124;28;20381;-14
2022/07/21 05:18:21;;;;;;;18.45;12.68;;;20.90;70.10;;;;;;5035006;28;20030;-14
2022/07/21 05:20:47;;;;;;;15.27;11.18;;;21.00;69.50;;;;;;5035339;28;20113;-14
2022/07/21 05:23:12;;;;;;;13.32;9.65;;;21.30;69.10;;;;;;5035036;28;20412;-14
2022/07/21 05:25:38;;;;;;;21.27;13.00;;;21.40;68.50;;;;;;5035289;28;20033;-14
2022/07/21 05:28:06;;;;;;;16.50;11.30;;;21.50;68.00;;;;;;5034642;28;20037;-14
2022/07/21 05:30:32;;;;;;;13.38;10.38;;;21.70;67.70;;;;;;5034752;28;20034;-13
2022/07/21 05:32:58;;;;;;;17.67;12.95;;;21.90;67.30;;;;;;5035182;28;20028;-14
2022/07/21 05:35:24;;;;;;;16.17;11.68;;;22.00;67.20;;;;;;5035471;28;20021;-14
2022/07/21 05:37:50;;;;;;;14.45;10.52;;;22.20;66.90;;;;;;5034609;28;20068;-14
2022/07/21 05:40:16;;;;;;;15.27;11.82;;;22.40;66.30;;;;;;5034564;28;20119;-13
2022/07/21 05:42:42;;;;;;;14.60;10.90;;;22.50;65.80;;;;;;5034997;28;20061;-13
2022/07/21 05:45:08;;;;;;;16.33;11.55;;;22.60;65.30;;;;;;5034626;28;20040;-13
2022/07/21 05:47:34;;;;;;;18.80;10.93;;;22.80;65.00;;;;;;5034428;28;20026;-13
2022/07/21 05:50:01;;;;;;;14.93;10.93;;;22.90;64.60;;;;;;5034677;28;20025;-13
2022/07/21 05:52:27;;;;;;;13.05;10.45;;;23.10;64.30;;;;;;5034245;28;20504;-13
2022/07/21 05:54:53;;;;;;;18.60;10.80;;;23.20;64.10;;;;;;5034385;28;20030;-13
2022/07/21 05:57:19;;;;;;;12.77;9.55;;;23.30;63.80;;;;;;5034554;28;20033;-12
2022/07/21 05:59:45;;;;;;;15.68;9.93;;;23.50;63.50;;;;;;5034268;28;20433;-13
2022/07/21 06:02:12;;;;;;;16.10;10.50;;;23.60;63.00;;;;;;5033062;28;20017;-12
2022/07/21 06:04:38;;;;;;;11.48;8.45;;;23.80;62.70;;;;;;5034447;28;20103;-13
2022/07/21 06:07:04;;;;;;;12.63;8.48;;;23.90;62.40;;;;;;5033970;28;20478;-11
2022/07/21 06:09:30;;;;;;;11.93;8.05;;;24.00;62.20;;;;;;5034294;28;20104;-13
2022/07/21 06:11:56;;;;;;;14.27;9.60;;;24.20;62.00;;;;;;5033931;28;20075;-12
2022/07/21 06:14:23;;;;;;;15.35;10.20;;;24.30;61.90;;;;;;5034068;28;20030;-11
2022/07/21 06:16:49;;;;;;;11.60;8.27;;;24.40;61.60;;;;;;5034282;28;20025;-14
2022/07/21 06:19:15;;;;;;;11.30;8.00;;;24.50;61.70;;;;;;5033976;28;20431;-13
2022/07/21 06:21:41;;;;;;;15.25;9.25;;;24.70;61.20;;;;;;5033789;28;20034;-13
2022/07/21 06:24:11;;;;;;;12.93;8.48;;;24.90;60.70;;;;;;5033942;28;20084;-13
2022/07/21 06:26:38;;;;;;;11.98;8.18;;;25.20;60.30;;;;;;5033532;28;20026;-13
2022/07/21 06:29:06;;;;;;;13.43;7.70;;;25.40;60.00;;;;;;5033985;28;20034;-13
2022/07/21 06:31:32;;;;;;;11.05;7.20;;;25.50;59.30;;;;;;5033707;28;20513;-13
2022/07/21 06:33:58;;;;;;;17.75;8.65;;;25.80;58.50;;;;;;5033934;28;20056;-12
2022/07/21 06:36:24;;;;;;;14.65;8.73;;;26.00;58.00;;;;;;5033718;28;20469;-13
2022/07/21 06:38:50;;;;;;;14.02;8.05;;;26.20;57.20;;;;;;5033444;28;20406;-13
2022/07/21 06:41:15;;;;;;;11.13;7.18;;;26.30;57.00;;;;;;5033573;28;20560;-13
2022/07/21 06:43:42;;;;;;;15.30;7.60;;;26.30;56.80;;;;;;5033358;28;20029;-12
2022/07/21 06:46:07;;;;;;;14.38;8.25;;;26.40;56.40;;;;;;5033572;28;20044;-13
2022/07/21 06:48:34;;;;;;;16.52;7.97;;;26.50;56.00;;;;;;5033351;28;20033;-13
2022/07/21 06:51:00;;;;;;;9.25;6.70;;;26.70;55.80;;;;;;5033658;28;20112;-13
2022/07/21 06:53:26;;;;;;;11.88;7.50;;;26.90;55.30;;;;;;5033360;28;20061;-13
2022/07/21 06:55:53;;;;;;;13.75;8.15;;;27.00;54.70;;;;;;5033550;28;20026;-12
2022/07/21 06:58:22;;;;;;;13.25;7.22;;;27.20;54.10;;;;;;5033290;28;20100;-13
2022/07/21 07:00:49;;;;;;;11.98;6.80;;;27.30;53.80;;;;;;5033548;28;20022;-13
2022/07/21 07:03:16;;;;;;;10.93;7.03;;;27.50;52.70;;;;;;5033537;28;20025;-11
2022/07/21 07:05:44;;;;;;;8.88;6.90;;;27.70;52.50;;;;;;5033293;28;20024;-13
2022/07/21 07:08:11;;;;;;;9.60;6.82;;;27.90;52.20;;;;;;5033240;28;20045;-13
2022/07/21 07:10:37;;;;;;;11.40;7.72;;;28.00;51.90;;;;;;5033007;28;20424;-13
2022/07/21 07:13:03;;;;;;;10.82;6.82;;;28.30;51.50;;;;;;5033032;28;20039;-13
2022/07/21 07:15:29;;;;;;;9.88;6.53;;;28.30;51.20;;;;;;5033298;28;20037;-13
2022/07/21 07:17:55;;;;;;;12.80;7.75;;;28.40;51.10;;;;;;5033288;28;20381;-14
2022/07/21 07:20:22;;;;;;;11.45;6.88;;;28.50;50.60;;;;;;5032836;28;20026;-14
2022/07/21 07:22:48;;;;;;;8.98;5.95;;;28.60;50.20;;;;;;5032527;28;20022;-13
2022/07/21 07:25:16;;;;;;;9.88;7.22;;;28.70;50.10;;;;;;5033237;28;20032;-13
2022/07/21 07:27:47;;;;;;;10.45;6.07;;;28.90;49.90;;;;;;5032788;28;20041;-13
2022/07/21 07:30:14;;;;;;;13.82;7.30;;;29.20;49.20;;;;;;5032711;28;20394;-13
2022/07/21 07:32:40;;;;;;;8.38;6.07;;;29.50;48.20;;;;;;5033421;28;20032;-13
2022/07/21 07:35:09;;;;;;;9.13;6.28;;;29.80;47.50;;;;;;5032911;28;20112;-12
2022/07/21 07:37:36;;;;;;;10.98;6.60;;;30.10;46.40;;;;;;5032694;28;20476;-12
2022/07/21 07:40:09;;;;;;;12.60;6.85;;;30.40;46.00;;;;;;5033170;28;20034;-12
2022/07/21 07:42:37;;;;;;;9.15;6.38;;;30.60;45.20;;;;;;5032824;28;20032;-12
2022/07/21 07:45:05;;;;;;;10.15;6.25;;;30.70;44.90;;;;;;5032917;28;20030;-12
2022/07/21 07:47:31;;;;;;;9.63;6.57;;;30.70;44.50;;;;;;5032679;28;20065;-13
2022/07/21 07:49:57;;;;;;;9.43;6.28;;;31.00;44.30;;;;;;5033098;28;20056;-13
2022/07/21 07:52:23;;;;;;;10.00;5.43;;;31.20;44.00;;;;;;5032821;28;20507;-14
2022/07/21 07:54:49;;;;;;;10.40;6.00;;;31.50;43.10;;;;;;5032697;28;20544;-13
2022/07/21 07:57:16;;;;;;;8.40;6.05;;;31.70;42.60;;;;;;5032939;28;20076;-13
2022/07/21 07:59:42;;;;;;;14.20;6.35;;;31.90;42.20;;;;;;5032711;28;20485;-13
2022/07/21 08:02:08;;;;;;;10.77;6.47;;;32.20;42.00;;;;;;5032972;28;20060;-13
2022/07/21 08:04:35;;;;;;;10.77;6.00;;;32.50;41.50;;;;;;5032493;28;20454;-13
2022/07/21 08:07:02;;;;;;;8.73;5.78;;;32.80;40.40;;;;;;5033111;28;20501;-13
2022/07/21 08:09:29;;;;;;;8.45;5.97;;;32.90;40.30;;;;;;5033066;28;20029;-13
2022/07/21 08:11:55;;;;;;;8.85;5.78;;;33.10;39.60;;;;;;5032733;28;20091;-13
2022/07/21 08:14:21;;;;;;;9.82;5.13;;;33.30;38.70;;;;;;5032347;28;20026;-13
2022/07/21 08:16:48;;;;;;;13.82;6.00;;;33.40;38.90;;;;;;5032554;28;20530;-14
2022/07/21 08:19:14;;;;;;;10.38;5.53;;;33.40;38.30;;;;;;5032743;28;20409;-13
2022/07/21 08:21:40;;;;;;;8.52;5.25;;;33.60;38.60;;;;;;5032766;28;20082;-13
2022/07/21 08:24:08;;;;;;;10.20;5.30;;;33.80;38.10;;;;;;5032594;28;20032;-13
2022/07/21 08:26:34;;;;;;;8.45;5.45;;;34.10;37.00;;;;;;5032477;28;20038;-13
2022/07/21 08:29:00;;;;;;;8.27;5.30;;;34.40;36.70;;;;;;5032481;28;20065;-12
2022/07/21 08:31:26;;;;;;;9.93;5.78;;;34.50;36.50;;;;;;5032401;28;20077;-13
2022/07/21 08:33:53;;;;;;;7.40;5.10;;;34.70;36.60;;;;;;5032975;28;20041;-13
2022/07/21 08:36:19;;;;;;;9.30;5.82;;;34.90;36.40;;;;;;5035692;28;20104;-13
2022/07/21 08:38:45;;;;;;;9.30;5.05;;;35.20;33.90;;;;;;5035602;28;20413;-13
2022/07/21 08:41:11;;;;;;;5.03;4.47;;;35.40;34.90;;;;;;5035798;28;20025;-13
2022/07/21 08:43:37;;;;;;;6.93;5.03;;;35.60;34.70;;;;;;5034406;28;20017;-12
2022/07/21 08:46:05;;;;;;;8.07;4.63;;;35.90;34.30;;;;;;5035699;28;20021;-13
2022/07/21 08:48:33;;;;;;;5.75;4.35;;;36.00;33.00;;;;;;5035632;28;20030;-12
2022/07/21 08:50:59;;;;;;;7.20;4.40;;;36.00;32.60;;;;;;5035961;28;20060;-13
2022/07/21 08:53:25;;;;;;;7.35;4.15;;;36.20;32.60;;;;;;5035976;28;20049;-13
2022/07/21 08:55:52;;;;;;;10.95;4.68;;;36.20;32.90;;;;;;5035855;28;20473;-13
2022/07/21 08:58:18;;;;;;;6.53;4.88;;;36.40;32.10;;;;;;5035255;28;20104;-12
2022/07/21 09:00:48;;;;;;;7.82;4.90;;;36.60;32.40;;;;;;5035457;28;20034;-13
2022/07/21 09:03:17;;;;;;;9.30;5.18;;;36.90;31.70;;;;;;5035702;28;20454;-13
2022/07/21 09:06:00;;;;;;;8.23;4.63;;;37.20;30.70;;;;;;5035728;28;20080;-13
2022/07/21 09:08:37;;;;;;;8.50;4.80;;;37.60;30.40;;;;;;5035502;28;20087;-13
2022/07/21 09:11:17;;;;;;;9.02;5.10;;;37.90;30.50;;;;;;5035739;28;20109;-12
2022/07/21 09:13:44;;;;;;;8.32;4.70;;;38.10;30.50;;;;;;5035090;28;20071;-12
2022/07/21 09:16:11;;;;;;;11.40;4.53;;;38.40;30.10;;;;;;5035264;28;20030;-12
2022/07/21 09:18:51;;;;;;;5.30;3.80;;;38.70;29.40;;;;;;5034931;28;20071;-13
2022/07/21 09:21:18;;;;;;;4.30;3.03;;;38.90;27.70;;;;;;5035347;28;20025;-13
2022/07/21 09:23:45;;;;;;;5.50;3.20;;;39.10;25.30;;;;;;5035295;28;20076;-13
2022/07/21 09:26:12;;;;;;;5.65;3.42;;;39.20;24.90;;;;;;5035231;28;20026;-12
2022/07/21 09:28:40;;;;;;;5.40;3.30;;;39.30;25.10;;;;;;5034750;28;20040;-13
2022/07/21 09:31:11;;;;;;;5.60;3.65;;;39.30;25.70;;;;;;5034901;28;20108;-13
2022/07/21 09:33:44;;;;;;;7.05;3.72;;;39.30;26.10;;;;;;5034928;28;20024;-12
2022/07/21 09:36:13;;;;;;;6.68;4.03;;;39.40;26.50;;;;;;5035005;28;20109;-13
2022/07/21 09:38:54;;;;;;;5.90;4.00;;;39.70;26.60;;;;;;5034558;28;20053;-13
2022/07/21 09:41:23;;;;;;;6.60;4.50;;;39.90;26.20;;;;;;5034745;28;20481;-13
2022/07/21 09:43:55;;;;;;;9.02;4.70;;;40.00;25.90;;;;;;5034570;28;20076;-13
2022/07/21 09:46:24;;;;;;;6.85;4.60;;;39.70;25.90;;;;;;5033859;28;20042;-14
2022/07/21 09:48:52;;;;;;;6.70;5.03;;;39.40;26.50;;;;;;5034447;28;20055;-13
2022/07/21 09:51:19;;;;;;;7.32;5.10;;;39.30;26.50;;;;;;5034866;28;20037;-13
2022/07/21 09:54:02;;;;;;;9.27;4.72;;;39.40;26.50;;;;;;5034738;28;20021;-13
2022/07/21 09:56:31;;;;;;;6.00;3.85;;;39.60;25.90;;;;;;5034379;28;20022;-14
2022/07/21 09:58:58;;;;;;;6.72;4.43;;;39.90;25.00;;;;;;5034617;28;20037;-13
2022/07/21 10:01:27;;;;;;;6.43;4.30;;;40.10;24.10;;;;;;5034617;28;20041;-13
2022/07/21 10:03:54;;;;;;;6.25;4.60;;;40.20;24.60;;;;;;5034265;28;20362;-13
2022/07/21 10:06:25;;;;;;;6.45;4.40;;;40.30;24.80;;;;;;5034254;28;20091;-13
2022/07/21 10:08:52;;;;;;;8.25;4.20;;;40.40;24.50;;;;;;5034193;28;20501;-13
2022/07/21 10:11:18;;;;;;;6.78;4.13;;;40.60;24.80;;;;;;5034436;28;20018;-13
2022/07/21 10:13:45;;;;;;;5.13;4.18;;;41.00;24.40;;;;;;5034007;28;20381;-13
2022/07/21 10:16:12;;;;;;;6.13;4.32;;;41.30;23.70;;;;;;5034349;28;20098;-13
2022/07/21 10:19:12;;;;;;;5.28;4.40;;;41.40;23.20;;;;;;5034988;28;20147;-13
2022/07/21 10:21:56;;;;;;;5.40;3.85;;;41.60;23.10;;;;;;5012057;28;20051;-13
2022/07/21 10:24:26;;;;;;;6.18;4.20;;;41.90;23.20;;;;;;5011897;28;20072;-13
2022/07/21 10:27:05;;;;;;;6.95;4.18;;;42.00;23.10;;;;;;5012631;28;20401;-13
2022/07/21 10:29:52;;;;;;;6.65;4.28;;;42.10;22.60;;;;;;5011910;28;20029;-13
2022/07/21 10:32:25;;;;;;;6.10;4.40;;;42.20;22.50;;;;;;5011813;28;20037;-13
2022/07/21 10:34:52;;;;;;;6.38;4.28;;;42.30;23.00;;;;;;5011991;28;20026;-13
2022/07/21 10:37:47;;;;;;;6.50;4.53;;;42.30;23.00;;;;;;5012033;28;20081;-11
2022/07/21 10:40:19;;;;;;;5.97;4.40;;;42.40;21.70;;;;;;4999434;28;20070;-13
2022/07/21 10:43:01;;;;;;;5.78;4.70;;;42.50;22.90;;;;;;5011728;28;20514;-13
2022/07/21 10:45:36;;;;;;;5.57;4.50;;;42.60;22.80;;;;;;5011791;28;20034;-13
2022/07/21 10:48:07;;;;;;;7.22;4.22;;;42.40;22.70;;;;;;5011676;28;20041;-13
2022/07/21 10:50:41;;;;;;;7.97;4.90;;;42.00;23.00;;;;;;5011519;28;20040;-13
2022/07/21 10:53:18;;;;;;;7.63;4.95;;;42.00;22.30;;;;;;5011509;28;20038;-13
2022/07/21 10:55:48;;;;;;;7.25;5.22;;;42.00;22.80;;;;;;5011684;28;20026;-13
2022/07/21 10:58:23;;;;;;;6.30;5.10;;;42.20;22.80;;;;;;5023494;28;20029;-13
2022/07/21 11:00:53;;;;;;;6.57;5.20;;;42.50;22.60;;;;;;5032045;28;20026;-13
2022/07/21 11:03:39;;;;;;;8.32;5.20;;;42.70;22.60;;;;;;5033619;28;20025;-13
2022/07/21 11:06:14;;;;;;;6.47;4.78;;;42.90;21.60;;;;;;5033437;28;20083;-13
2022/07/21 11:08:49;;;;;;;12.02;5.13;;;43.20;21.60;;;;;;5033444;28;20116;-14
2022/07/21 11:11:22;;;;;;;6.35;5.10;;;43.50;21.70;;;;;;5033530;28;20178;-14
2022/07/21 11:14:08;;;;;;;6.53;4.65;;;43.80;22.10;;;;;;5033290;28;20021;-13
2022/07/21 11:16:43;;;;;;;7.68;4.72;;;44.20;22.00;;;;;;5032997;28;20025;-13
2022/07/21 11:19:30;;;;;;;7.13;5.30;;;44.60;21.00;;;;;;5033384;28;20486;-13
2022/07/21 11:21:59;;;;;;;7.82;5.30;;;45.00;21.00;;;;;;5033032;28;20029;-13
2022/07/21 11:24:27;;;;;;;6.50;5.20;;;45.30;20.30;;;;;;5032878;28;20020;-13
2022/07/21 11:27:02;;;;;;;6.18;4.80;;;45.30;20.50;;;;;;5033218;28;20042;-13
2022/07/21 11:29:29;;;;;;;7.70;5.18;;;45.10;20.60;;;;;;5032940;28;20018;-13
2022/07/21 11:31:56;;;;;;;6.15;5.22;;;45.00;20.80;;;;;;5033273;28;20037;-13
2022/07/21 11:34:24;;;;;;;6.15;5.43;;;45.00;20.80;;;;;;5032690;28;20057;-13
2022/07/21 11:37:01;;;;;;;7.07;4.93;;;44.90;20.60;;;;;;5032903;28;20029;-13
2022/07/21 11:39:27;;;;;;;6.63;5.07;;;44.70;20.70;;;;;;5033215;28;20550;-13
2022/07/21 11:41:54;;;;;;;6.70;5.65;;;44.80;20.60;;;;;;5033159;28;20029;-13
2022/07/21 11:44:25;;;;;;;9.73;5.70;;;45.00;20.90;;;;;;5032574;28;20105;-13
2022/07/21 11:46:56;;;;;;;6.25;5.18;;;45.50;20.50;;;;;;5032922;28;20088;-13
2022/07/21 11:49:23;;;;;;;5.55;4.95;;;45.50;20.70;;;;;;5033236;28;20366;-13
2022/07/21 11:51:54;;;;;;;6.50;5.00;;;45.60;20.60;;;;;;5033079;28;20033;-13
2022/07/21 11:54:27;;;;;;;7.60;5.05;;;45.80;20.30;;;;;;5032626;28;20436;-13
2022/07/21 11:56:54;;;;;;;8.13;4.72;;;46.00;20.40;;;;;;5033041;28;20049;-13
2022/07/21 11:59:21;;;;;;;6.15;5.00;;;46.40;20.30;;;;;;5032627;28;20022;-13
2022/07/21 12:01:55;;;;;;;5.68;4.50;;;46.70;20.10;;;;;;5032650;28;20029;-13
2022/07/21 12:04:35;;;;;;;6.78;5.70;;;47.00;20.20;;;;;;5032477;28;20030;-13
2022/07/21 12:07:03;;;;;;;6.63;5.03;;;47.30;18.90;;;;;;5033270;28;20048;-13
2022/07/21 12:09:29;;;;;;;7.68;5.03;;;47.40;19.10;;;;;;5035756;28;20109;-13
2022/07/21 12:11:55;;;;;;;6.45;5.20;;;47.40;19.30;;;;;;5036387;28;20120;-13
2022/07/21 12:14:39;;;;;;;8.18;4.80;;;47.40;19.10;;;;;;5036144;28;20108;-13
2022/07/21 12:17:05;;;;;;;6.88;4.78;;;47.30;18.80;;;;;;5035110;28;20053;-13
2022/07/21 12:19:32;;;;;;;6.55;4.47;;;47.20;18.80;;;;;;5036567;28;20108;-13
2022/07/21 12:21:58;;;;;;;10.13;4.68;;;47.10;19.40;;;;;;5035157;28;20493;-13
2022/07/21 12:24:48;;;;;;;7.75;4.57;;;46.90;19.50;;;;;;5036279;28;20113;-13
2022/07/21 12:27:16;;;;;;;6.90;4.88;;;47.00;19.40;;;;;;5036419;28;20076;-13
2022/07/21 12:29:42;;;;;;;7.18;4.85;;;47.20;19.30;;;;;;5035945;28;20036;-13
2022/07/21 12:32:08;;;;;;;5.63;4.90;;;47.30;19.40;;;;;;5035942;28;20036;-13
2022/07/21 12:34:50;;;;;;;7.20;4.80;;;47.40;19.60;;;;;;5036067;28;20021;-13
2022/07/21 12:37:16;;;;;;;7.78;5.00;;;47.40;19.10;;;;;;5035780;28;20512;-13
2022/07/21 12:39:57;;;;;;;6.95;4.82;;;47.40;19.10;;;;;;5036362;28;20029;-13
2022/07/21 12:42:35;;;;;;;5.47;4.65;;;47.10;19.40;;;;;;5036022;28;20025;-13
2022/07/21 12:45:13;;;;;;;5.10;4.57;;;47.00;19.40;;;;;;5036153;28;20025;-13
2022/07/21 12:47:39;;;;;;;6.22;4.28;;;46.90;19.30;;;;;;5034481;28;20029;-13
2022/07/21 12:50:09;;;;;;;5.72;4.35;;;46.70;19.40;;;;;;5034414;28;20026;-13